Lionhead Wind

Lionhead weather stationLocated on Lionhead Ridge near West Yellowstone. Use the nearest SNOTEL station for snow depth data: Madison Plateau. The data on this page is also available to view at dataGarrison.com.

Elevation
9420ft
Jump to table bottom
Date Time Temperature
deg F
RH, % Wind Speed Wind Gust Wind Direction Pressure Light
12/02/22 22:00 -1.1 91 27 34 SW - 226 714.900 0
12/02/22 21:00 -0.5 91 31 42 SW - 212 714.660 0
12/02/22 20:00 0.2 91 28 44 SW - 212 714.100 0
12/02/22 19:00 0.9 92 25 41 SW - 219 714.260 0
12/02/22 18:00 1.1 92 25 37 SW - 222 713.300 0
12/02/22 17:00 0.5 92 19 29 SW - 216 713.760 0
12/02/22 16:00 1.7 92 21 37 SW - 218 713.500 0
12/02/22 15:00 3.7 93 19 34 SW - 240 712.620 0
12/02/22 14:00 8.7 94 15 32 W - 253 712.180 0
12/02/22 13:00 7.6 93 13 34 W - 261 711.260 0
12/02/22 12:00 8.2 94 14 33 W - 260 711.020 0
12/02/22 11:00 10.6 94 10 27 W - 250 710.460 0
12/02/22 10:00 5.7 93 7 24 W - 256 709.660 0
12/02/22 09:00 3.8 93 8 24 W - 257 708.380 0
12/02/22 08:00 0.2 91 8 35 W - 286 707.080 0
12/02/22 07:00 0.2 92 10 37 W - 275 705.760 0
12/02/22 06:00 1.9 92 10 36 W - 278 704.340 0
12/02/22 05:00 3.2 93 7 38 N - 11 703.500 0
12/02/22 04:00 4.8 93 3 19 N - 21 702.320 0
12/02/22 03:00 5.8 94 4 19 N - 22 701.840 0
12/02/22 02:00 8.3 94 5 25 N - 341 701.140 0
12/02/22 01:00 11.2 95 8 43 NW - 330 700.440 0
12/02/22 00:00 12.1 95 7 35 NE - 32 700.360 0
12/01/22 23:00 16.5 97 8 31 W - 277 700.120 0
12/01/22 22:00 17.8 97 18 45 W - 263 699.440 0
12/01/22 21:00 18.6 97 36 62 SW - 243 699.160 0
12/01/22 20:00 18.3 97 38 62 SW - 239 697.580 0
12/01/22 19:00 18.4 97 38 68 SW - 225 699.000 0
12/01/22 18:00 18.3 97 42 70 SW - 223 698.320 0
12/01/22 17:00 18.2 97 46 74 SW - 229 697.600 0
12/01/22 16:00 18.0 97 43 64 SW - 227 698.500 0
12/01/22 15:00 18.1 97 45 68 SW - 218 698.780 0
12/01/22 14:00 18.4 97 43 65 SW - 216 699.740 0
12/01/22 13:00 18.1 97 39 56 SW - 219 699.820 0
12/01/22 12:00 17.6 97 40 64 SW - 212 699.640 0
12/01/22 11:00 17.1 97 40 62 SW - 212 700.060 0
12/01/22 10:00 16.6 96 36 57 SW - 213 701.080 0
12/01/22 09:00 16.5 96 33 49 SW - 208 701.720 0
12/01/22 08:00 16.3 96 27 45 SW - 204 702.540 0
12/01/22 07:00 15.5 96 22 35 SW - 212 702.880 0
12/01/22 06:00 15.1 96 22 36 SW - 208 702.780 0
12/01/22 05:00 15.6 96 26 42 SW - 223 703.840 0
12/01/22 04:00 15.4 96 24 45 SW - 218 703.100 0
12/01/22 03:00 14.1 95 21 35 SW - 208 704.800 0
12/01/22 02:00 13.1 95 23 36 S - 199 705.200 0
12/01/22 01:00 12.4 95 25 41 S - 199 705.620 0
12/01/22 00:00 12.8 95 24 37 S - 202 706.420 0
11/30/22 23:00 11.8 94 24 37 SW - 206 706.240 0
11/30/22 22:00 11.9 94 26 40 SW - 206 706.180 0
11/30/22 21:00 12.0 94 23 35 SW - 211 705.740 0